sensor_id;sensor_type;location;lat;lon;timestamp;pressure;altitude;pressure_sealevel;temperature;humidity
57990;BME280;58373;51.824;5.564;2023-08-12T00:00:23;101701.88;;;20.82;91.82
57990;BME280;58373;51.824;5.564;2023-08-12T00:02:48;101704.66;;;20.80;91.86
57990;BME280;58373;51.824;5.564;2023-08-12T00:05:14;101704.50;;;20.74;92.36
57990;BME280;58373;51.824;5.564;2023-08-12T00:07:39;101700.56;;;20.69;92.53
57990;BME280;58373;51.824;5.564;2023-08-12T00:10:08;101706.84;;;20.68;92.83
57990;BME280;58373;51.824;5.564;2023-08-12T00:12:34;101700.41;;;20.71;92.64
57990;BME280;58373;51.824;5.564;2023-08-12T00:15:00;101692.66;;;20.69;92.77
57990;BME280;58373;51.824;5.564;2023-08-12T00:17:25;101695.97;;;20.72;92.79
57990;BME280;58373;51.824;5.564;2023-08-12T00:19:50;101698.59;;;20.72;93.15
57990;BME280;58373;51.824;5.564;2023-08-12T00:22:16;101695.97;;;20.72;92.98
57990;BME280;58373;51.824;5.564;2023-08-12T00:24:41;101692.31;;;20.73;93.05
57990;BME280;58373;51.824;5.564;2023-08-12T00:27:06;101695.16;;;20.71;92.93
57990;BME280;58373;51.824;5.564;2023-08-12T00:29:32;101689.06;;;20.71;93.11
57990;BME280;58373;51.824;5.564;2023-08-12T00:31:57;101685.41;;;20.72;93.36
57990;BME280;58373;51.824;5.564;2023-08-12T00:34:22;101685.41;;;20.72;93.52
57990;BME280;58373;51.824;5.564;2023-08-12T00:36:47;101678.50;;;20.71;93.42
57990;BME280;58373;51.824;5.564;2023-08-12T00:39:13;101678.84;;;20.67;93.53
57990;BME280;58373;51.824;5.564;2023-08-12T00:41:38;101673.91;;;20.64;93.45
57990;BME280;58373;51.824;5.564;2023-08-12T00:44:03;101665.34;;;20.62;93.94
57990;BME280;58373;51.824;5.564;2023-08-12T00:46:29;101654.78;;;20.62;93.50
57990;BME280;58373;51.824;5.564;2023-08-12T00:48:54;101655.47;;;20.56;93.97
57990;BME280;58373;51.824;5.564;2023-08-12T00:51:19;101661.09;;;20.53;94.47
57990;BME280;58373;51.824;5.564;2023-08-12T00:53:44;101659.13;;;20.55;94.43
57990;BME280;58373;51.824;5.564;2023-08-12T00:56:11;101651.22;;;20.55;94.39
57990;BME280;58373;51.824;5.564;2023-08-12T00:58:36;101649.56;;;20.54;94.73
57990;BME280;58373;51.824;5.564;2023-08-12T01:01:02;101643.31;;;20.55;94.66
57990;BME280;58373;51.824;5.564;2023-08-12T01:03:27;101641.66;;;20.54;94.75
57990;BME280;58373;51.824;5.564;2023-08-12T01:05:52;101645.28;;;20.53;94.83
57990;BME280;58373;51.824;5.564;2023-08-12T01:08:17;101647.94;;;20.53;94.85
57990;BME280;58373;51.824;5.564;2023-08-12T01:10:44;101627.81;;;20.52;95.10
57990;BME280;58373;51.824;5.564;2023-08-12T01:13:16;101635.06;;;20.50;94.99
57990;BME280;58373;51.824;5.564;2023-08-12T01:15:44;101621.25;;;20.48;94.90
57990;BME280;58373;51.824;5.564;2023-08-12T01:18:10;101622.56;;;20.44;95.46
57990;BME280;58373;51.824;5.564;2023-08-12T01:20:36;101618.59;;;20.40;95.54
57990;BME280;58373;51.824;5.564;2023-08-12T01:23:12;101616.16;;;20.38;95.71
57990;BME280;58373;51.824;5.564;2023-08-12T01:25:38;101618.16;;;20.36;95.69
57990;BME280;58373;51.824;5.564;2023-08-12T01:28:03;101618.28;;;20.35;96.12
57990;BME280;58373;51.824;5.564;2023-08-12T01:30:29;101620.28;;;20.33;95.89
57990;BME280;58373;51.824;5.564;2023-08-12T01:33:00;101624.38;;;20.35;96.32
57990;BME280;58373;51.824;5.564;2023-08-12T01:37:54;101623.75;;;20.33;96.68
57990;BME280;58373;51.824;5.564;2023-08-12T01:40:22;101612.38;;;20.33;96.84
57990;BME280;58373;51.824;5.564;2023-08-12T01:42:47;101601.84;;;20.33;96.70
57990;BME280;58373;51.824;5.564;2023-08-12T01:45:13;101605.47;;;20.32;96.93
57990;BME280;58373;51.824;5.564;2023-08-12T01:47:38;101595.94;;;20.31;97.22
57990;BME280;58373;51.824;5.564;2023-08-12T01:50:03;101588.03;;;20.31;97.29
57990;BME280;58373;51.824;5.564;2023-08-12T01:52:29;101589.00;;;20.30;97.53
57990;BME280;58373;51.824;5.564;2023-08-12T01:54:54;101591.63;;;20.30;97.65
57990;BME280;58373;51.824;5.564;2023-08-12T01:57:19;101591.00;;;20.28;97.21
57990;BME280;58373;51.824;5.564;2023-08-12T01:59:45;101586.91;;;20.25;97.93
57990;BME280;58373;51.824;5.564;2023-08-12T02:02:10;101592.31;;;20.24;97.94
57990;BME280;58373;51.824;5.564;2023-08-12T02:04:35;101592.97;;;20.26;98.06
57990;BME280;58373;51.824;5.564;2023-08-12T02:07:02;101587.03;;;20.24;98.60
57990;BME280;58373;51.824;5.564;2023-08-12T02:09:27;101580.97;;;20.23;98.51
57990;BME280;58373;51.824;5.564;2023-08-12T02:11:53;101579.31;;;20.22;98.39
57990;BME280;58373;51.824;5.564;2023-08-12T02:14:18;101585.41;;;20.23;98.48
57990;BME280;58373;51.824;5.564;2023-08-12T02:16:43;101580.97;;;20.23;98.77
57990;BME280;58373;51.824;5.564;2023-08-12T02:19:08;101576.88;;;20.21;98.78
57990;BME280;58373;51.824;5.564;2023-08-12T02:21:33;101578.84;;;20.19;98.94
57990;BME280;58373;51.824;5.564;2023-08-12T02:23:58;101584.59;;;20.22;98.72
57990;BME280;58373;51.824;5.564;2023-08-12T02:26:24;101573.22;;;20.22;98.85
57990;BME280;58373;51.824;5.564;2023-08-12T02:28:49;101581.13;;;20.22;99.05
57990;BME280;58373;51.824;5.564;2023-08-12T02:31:17;101574.41;;;20.19;99.34
57990;BME280;58373;51.824;5.564;2023-08-12T02:33:42;101577.69;;;20.21;99.57
57990;BME280;58373;51.824;5.564;2023-08-12T02:36:08;101574.88;;;20.23;99.40
57990;BME280;58373;51.824;5.564;2023-08-12T02:38:33;101565.34;;;20.22;99.47
57990;BME280;58373;51.824;5.564;2023-08-12T02:40:58;101563.50;;;20.22;99.78
57990;BME280;58373;51.824;5.564;2023-08-12T02:43:24;101562.69;;;20.22;99.90
57990;BME280;58373;51.824;5.564;2023-08-12T02:45:49;101562.69;;;20.22;99.67
57990;BME280;58373;51.824;5.564;2023-08-12T02:48:14;101553.78;;;20.23;100.00
57990;BME280;58373;51.824;5.564;2023-08-12T02:50:39;101557.44;;;20.22;100.00
57990;BME280;58373;51.824;5.564;2023-08-12T02:53:05;101546.06;;;20.21;100.00
57990;BME280;58373;51.824;5.564;2023-08-12T02:55:30;101546.91;;;20.22;99.90
57990;BME280;58373;51.824;5.564;2023-08-12T02:57:57;101552.16;;;20.22;100.00
57990;BME280;58373;51.824;5.564;2023-08-12T03:00:22;101542.44;;;20.22;100.00
57990;BME280;58373;51.824;5.564;2023-08-12T03:02:47;101541.63;;;20.22;99.90
57990;BME280;58373;51.824;5.564;2023-08-12T03:05:12;101534.72;;;20.21;100.00
57990;BME280;58373;51.824;5.564;2023-08-12T03:07:37;101532.41;;;20.17;100.00
57990;BME280;58373;51.824;5.564;2023-08-12T03:10:03;101534.22;;;20.17;100.00
57990;BME280;58373;51.824;5.564;2023-08-12T03:12:28;101527.81;;;20.20;100.00
57990;BME280;58373;51.824;5.564;2023-08-12T03:14:53;101528.81;;;20.19;100.00
57990;BME280;58373;51.824;5.564;2023-08-12T03:17:18;101528.13;;;20.16;100.00
57990;BME280;58373;51.824;5.564;2023-08-12T03:19:43;101514.34;;;20.14;100.00
57990;BME280;58373;51.824;5.564;2023-08-12T03:22:08;101512.69;;;20.13;100.00
57990;BME280;58373;51.824;5.564;2023-08-12T03:24:34;101513.50;;;20.14;100.00
57990;BME280;58373;51.824;5.564;2023-08-12T03:26:59;101512.69;;;20.13;100.00
57990;BME280;58373;51.824;5.564;2023-08-12T03:29:24;101512.69;;;20.13;100.00
57990;BME280;58373;51.824;5.564;2023-08-12T03:31:50;101497.88;;;20.12;100.00
57990;BME280;58373;51.824;5.564;2023-08-12T03:34:15;101502.16;;;20.13;100.00
57990;BME280;58373;51.824;5.564;2023-08-12T03:36:40;101494.91;;;20.15;100.00
57990;BME280;58373;51.824;5.564;2023-08-12T03:39:06;101496.53;;;20.16;100.00
57990;BME280;58373;51.824;5.564;2023-08-12T03:41:31;101494.25;;;20.13;100.00
57990;BME280;58373;51.824;5.564;2023-08-12T03:43:56;101485.69;;;20.11;100.00
57990;BME280;58373;51.824;5.564;2023-08-12T03:46:21;101490.97;;;20.11;100.00
57990;BME280;58373;51.824;5.564;2023-08-12T03:48:46;101489.31;;;20.10;100.00
57990;BME280;58373;51.824;5.564;2023-08-12T03:51:12;101488.69;;;20.08;100.00
57990;BME280;58373;51.824;5.564;2023-08-12T03:53:37;101491.13;;;20.10;100.00
57990;BME280;58373;51.824;5.564;2023-08-12T03:56:02;101483.06;;;20.11;100.00
57990;BME280;58373;51.824;5.564;2023-08-12T03:58:27;101474.16;;;20.12;100.00
57990;BME280;58373;51.824;5.564;2023-08-12T04:00:52;101474.16;;;20.12;100.00
57990;BME280;58373;51.824;5.564;2023-08-12T04:03:18;101470.88;;;20.10;100.00
57990;BME280;58373;51.824;5.564;2023-08-12T04:05:49;101463.16;;;20.09;100.00
57990;BME280;58373;51.824;5.564;2023-08-12T04:08:16;101458.72;;;20.09;100.00
57990;BME280;58373;51.824;5.564;2023-08-12T04:10:44;101467.63;;;20.08;100.00
57990;BME280;58373;51.824;5.564;2023-08-12T04:13:09;101467.94;;;20.05;100.00
57990;BME280;58373;51.824;5.564;2023-08-12T04:15:34;101469.94;;;20.03;100.00
57990;BME280;58373;51.824;5.564;2023-08-12T04:18:00;101468.63;;;19.99;100.00
57990;BME280;58373;51.824;5.564;2023-08-12T04:20:25;101476.06;;;19.96;100.00
57990;BME280;58373;51.824;5.564;2023-08-12T04:22:50;101473.59;;;19.94;100.00
57990;BME280;58373;51.824;5.564;2023-08-12T04:25:15;101466.03;;;19.91;100.00
57990;BME280;58373;51.824;5.564;2023-08-12T04:27:41;101470.50;;;19.91;100.00
57990;BME280;58373;51.824;5.564;2023-08-12T04:30:06;101466.03;;;19.91;100.00
57990;BME280;58373;51.824;5.564;2023-08-12T04:32:31;101459.97;;;19.91;100.00
57990;BME280;58373;51.824;5.564;2023-08-12T04:34:57;101453.88;;;19.90;100.00
57990;BME280;58373;51.824;5.564;2023-08-12T04:37:22;101450.25;;;19.91;100.00
57990;BME280;58373;51.824;5.564;2023-08-12T04:39:49;101444.31;;;19.89;100.00
57990;BME280;58373;51.824;5.564;2023-08-12T04:42:14;101431.50;;;19.86;100.00
57990;BME280;58373;51.824;5.564;2023-08-12T04:44:39;101435.78;;;19.87;100.00
57990;BME280;58373;51.824;5.564;2023-08-12T04:47:04;101432.31;;;19.86;100.00
57990;BME280;58373;51.824;5.564;2023-08-12T04:49:30;101423.59;;;19.86;100.00
57990;BME280;58373;51.824;5.564;2023-08-12T04:51:55;101423.59;;;19.86;100.00
57990;BME280;58373;51.824;5.564;2023-08-12T04:54:20;101437.91;;;19.83;100.00
57990;BME280;58373;51.824;5.564;2023-08-12T04:56:46;101435.47;;;19.82;100.00
57990;BME280;58373;51.824;5.564;2023-08-12T04:59:11;101430.19;;;19.82;100.00
57990;BME280;58373;51.824;5.564;2023-08-12T05:01:36;101419.03;;;19.80;100.00
57990;BME280;58373;51.824;5.564;2023-08-12T05:04:02;101422.47;;;19.80;100.00
57990;BME280;58373;51.824;5.564;2023-08-12T05:06:27;101414.41;;;19.82;100.00
57990;BME280;58373;51.824;5.564;2023-08-12T05:08:52;101412.28;;;19.77;100.00
57990;BME280;58373;51.824;5.564;2023-08-12T05:11:17;101422.34;;;19.74;100.00
57990;BME280;58373;51.824;5.564;2023-08-12T05:13:43;101415.44;;;19.73;100.00
57990;BME280;58373;51.824;5.564;2023-08-12T05:16:08;101410.19;;;19.73;100.00
57990;BME280;58373;51.824;5.564;2023-08-12T05:18:33;101419.03;;;19.72;100.00
57990;BME280;58373;51.824;5.564;2023-08-12T05:20:58;101423.03;;;19.68;100.00
57990;BME280;58373;51.824;5.564;2023-08-12T05:23:24;101425.81;;;19.66;100.00
57990;BME280;58373;51.824;5.564;2023-08-12T05:25:49;101420.53;;;19.66;100.00
57990;BME280;58373;51.824;5.564;2023-08-12T05:28:14;101428.63;;;19.65;100.00
57990;BME280;58373;51.824;5.564;2023-08-12T05:30:39;101435.88;;;19.62;100.00
57990;BME280;58373;51.824;5.564;2023-08-12T05:33:04;101436.19;;;19.59;100.00
57990;BME280;58373;51.824;5.564;2023-08-12T05:35:33;101418.78;;;19.58;100.00
57990;BME280;58373;51.824;5.564;2023-08-12T05:37:59;101404.94;;;19.56;100.00
57990;BME280;58373;51.824;5.564;2023-08-12T05:40:24;101411.34;;;19.54;100.00
57990;BME280;58373;51.824;5.564;2023-08-12T05:42:49;101404.97;;;19.48;100.00
57990;BME280;58373;51.824;5.564;2023-08-12T05:45:14;101404.31;;;19.46;100.00
57990;BME280;58373;51.824;5.564;2023-08-12T05:47:40;101409.56;;;19.46;100.00
57990;BME280;58373;51.824;5.564;2023-08-12T05:50:06;101408.75;;;19.46;100.00
57990;BME280;58373;51.824;5.564;2023-08-12T05:52:31;101405.00;;;19.40;100.00
57990;BME280;58373;51.824;5.564;2023-08-12T05:54:56;101398.41;;;19.36;100.00
57990;BME280;58373;51.824;5.564;2023-08-12T05:57:22;101395.47;;;19.31;100.00
57990;BME280;58373;51.824;5.564;2023-08-12T05:59:47;101406.00;;;19.31;100.00
57990;BME280;58373;51.824;5.564;2023-08-12T06:02:12;101408.63;;;19.31;100.00
57990;BME280;58373;51.824;5.564;2023-08-12T06:04:37;101400.72;;;19.31;100.00
57990;BME280;58373;51.824;5.564;2023-08-12T06:07:02;101399.09;;;19.30;100.00
57990;BME280;58373;51.824;5.564;2023-08-12T06:09:28;101406.97;;;19.30;100.00
57990;BME280;58373;51.824;5.564;2023-08-12T06:11:53;101406.00;;;19.31;100.00
57990;BME280;58373;51.824;5.564;2023-08-12T06:14:18;101411.25;;;19.31;100.00
57990;BME280;58373;51.824;5.564;2023-08-12T06:16:43;101403.03;;;19.26;100.00
57990;BME280;58373;51.824;5.564;2023-08-12T06:19:08;101403.03;;;19.26;100.00
57990;BME280;58373;51.824;5.564;2023-08-12T06:21:33;101394.50;;;19.24;100.00
57990;BME280;58373;51.824;5.564;2023-08-12T06:23:59;101391.22;;;19.22;100.00
57990;BME280;58373;51.824;5.564;2023-08-12T06:26:24;101387.59;;;19.23;100.00
57990;BME280;58373;51.824;5.564;2023-08-12T06:28:49;101386.63;;;19.24;100.00
57990;BME280;58373;51.824;5.564;2023-08-12T06:31:14;101382.00;;;19.26;100.00
57990;BME280;58373;51.824;5.564;2023-08-12T06:33:40;101378.41;;;19.27;100.00
57990;BME280;58373;51.824;5.564;2023-08-12T06:36:05;101385.31;;;19.28;100.00
57990;BME280;58373;51.824;5.564;2023-08-12T06:38:31;101374.78;;;19.28;100.00
57990;BME280;58373;51.824;5.564;2023-08-12T06:40:56;101378.22;;;19.28;100.00
57990;BME280;58373;51.824;5.564;2023-08-12T06:43:21;101375.91;;;19.25;100.00
57990;BME280;58373;51.824;5.564;2023-08-12T06:45:46;101382.00;;;19.26;100.00
57990;BME280;58373;51.824;5.564;2023-08-12T06:48:11;101374.94;;;19.26;100.00
57990;BME280;58373;51.824;5.564;2023-08-12T06:50:37;101369.53;;;19.28;100.00
57990;BME280;58373;51.824;5.564;2023-08-12T06:53:02;101371.47;;;19.26;100.00
57990;BME280;58373;51.824;5.564;2023-08-12T06:55:27;101375.09;;;19.25;100.00
57990;BME280;58373;51.824;5.564;2023-08-12T06:57:52;101366.56;;;19.23;100.00
57990;BME280;58373;51.824;5.564;2023-08-12T07:00:18;101367.72;;;19.20;100.00
57990;BME280;58373;51.824;5.564;2023-08-12T07:02:43;101359.69;;;19.22;100.00
57990;BME280;58373;51.824;5.564;2023-08-12T07:05:08;101368.22;;;19.24;100.00
57990;BME280;58373;51.824;5.564;2023-08-12T07:07:33;101357.69;;;19.24;100.00
57990;BME280;58373;51.824;5.564;2023-08-12T07:09:59;101358.50;;;19.24;100.00
57990;BME280;58373;51.824;5.564;2023-08-12T07:12:24;101345.19;;;19.26;100.00
57990;BME280;58373;51.824;5.564;2023-08-12T07:14:49;101354.72;;;19.27;100.00
57990;BME280;58373;51.824;5.564;2023-08-12T07:17:14;101352.44;;;19.24;100.00
57990;BME280;58373;51.824;5.564;2023-08-12T07:19:39;101350.78;;;19.23;100.00
57990;BME280;58373;51.824;5.564;2023-08-12T07:22:05;101340.59;;;19.20;100.00
57990;BME280;58373;51.824;5.564;2023-08-12T07:24:30;101338.63;;;19.22;100.00
57990;BME280;58373;51.824;5.564;2023-08-12T07:26:55;101344.72;;;19.22;100.00
57990;BME280;58373;51.824;5.564;2023-08-12T07:29:20;101338.28;;;19.25;100.00
57990;BME280;58373;51.824;5.564;2023-08-12T07:31:46;101330.41;;;19.25;100.00
57990;BME280;58373;51.824;5.564;2023-08-12T07:34:11;101330.22;;;19.26;100.00
57990;BME280;58373;51.824;5.564;2023-08-12T07:36:38;101329.06;;;19.29;100.00
57990;BME280;58373;51.824;5.564;2023-08-12T07:39:03;101324.63;;;19.29;100.00
57990;BME280;58373;51.824;5.564;2023-08-12T07:41:28;101323.00;;;19.28;100.00
57990;BME280;58373;51.824;5.564;2023-08-12T07:43:54;101324.00;;;19.27;100.00
57990;BME280;58373;51.824;5.564;2023-08-12T07:46:19;101322.19;;;19.28;100.00
57990;BME280;58373;51.824;5.564;2023-08-12T07:48:44;101329.25;;;19.27;100.00
57990;BME280;58373;51.824;5.564;2023-08-12T07:51:09;101329.25;;;19.27;100.00
57990;BME280;58373;51.824;5.564;2023-08-12T07:53:35;101331.06;;;19.27;100.00
57990;BME280;58373;51.824;5.564;2023-08-12T07:56:00;101333.03;;;19.25;100.00
57990;BME280;58373;51.824;5.564;2023-08-12T07:58:25;101330.56;;;19.23;100.00
57990;BME280;58373;51.824;5.564;2023-08-12T08:00:53;101326.13;;;19.24;100.00
57990;BME280;58373;51.824;5.564;2023-08-12T08:03:19;101324.13;;;19.26;100.00
57990;BME280;58373;51.824;5.564;2023-08-12T08:05:44;101322.50;;;19.25;100.00
57990;BME280;58373;51.824;5.564;2023-08-12T08:08:11;101318.06;;;19.25;100.00
57990;BME280;58373;51.824;5.564;2023-08-12T08:10:37;101313.47;;;19.27;100.00
57990;BME280;58373;51.824;5.564;2023-08-12T08:13:02;101321.81;;;19.31;100.00
57990;BME280;58373;51.824;5.564;2023-08-12T08:15:28;101313.94;;;19.31;100.00
57990;BME280;58373;51.824;5.564;2023-08-12T08:17:53;101326.75;;;19.34;100.00
57990;BME280;58373;51.824;5.564;2023-08-12T08:20:18;101321.31;;;19.35;100.00
57990;BME280;58373;51.824;5.564;2023-08-12T08:22:43;101325.41;;;19.38;100.00
57990;BME280;58373;51.824;5.564;2023-08-12T08:25:08;101321.63;;;19.41;100.00
57990;BME280;58373;51.824;5.564;2023-08-12T08:27:34;101318.50;;;19.45;100.00
57990;BME280;58373;51.824;5.564;2023-08-12T08:29:59;101332.78;;;19.51;100.00
57990;BME280;58373;51.824;5.564;2023-08-12T08:32:24;101333.22;;;19.54;100.00
57990;BME280;58373;51.824;5.564;2023-08-12T08:34:50;101328.63;;;19.56;100.00
57990;BME280;58373;51.824;5.564;2023-08-12T08:37:15;101337.19;;;19.58;100.00
57990;BME280;58373;51.824;5.564;2023-08-12T08:39:41;101344.09;;;19.59;100.00
57990;BME280;58373;51.824;5.564;2023-08-12T08:42:06;101346.72;;;19.59;100.00
57990;BME280;58373;51.824;5.564;2023-08-12T08:44:31;101343.09;;;19.60;100.00
57990;BME280;58373;51.824;5.564;2023-08-12T08:46:58;101342.28;;;19.60;100.00
57990;BME280;58373;51.824;5.564;2023-08-12T08:49:24;101342.28;;;19.60;100.00
57990;BME280;58373;51.824;5.564;2023-08-12T08:51:50;101350.84;;;19.62;100.00
57990;BME280;58373;51.824;5.564;2023-08-12T08:54:16;101352.66;;;19.61;100.00
57990;BME280;58373;51.824;5.564;2023-08-12T08:56:41;101370.41;;;19.59;100.00
57990;BME280;58373;51.824;5.564;2023-08-12T08:59:07;101370.41;;;19.59;100.00
57990;BME280;58373;51.824;5.564;2023-08-12T09:01:32;101374.69;;;19.60;100.00
57990;BME280;58373;51.824;5.564;2023-08-12T09:03:59;101377.97;;;19.62;100.00
57990;BME280;58373;51.824;5.564;2023-08-12T09:06:25;101383.56;;;19.59;100.00
57990;BME280;58373;51.824;5.564;2023-08-12T09:08:53;101382.25;;;19.63;100.00
57990;BME280;58373;51.824;5.564;2023-08-12T09:11:19;101380.22;;;19.74;100.00
57990;BME280;58373;51.824;5.564;2023-08-12T09:13:44;101381.38;;;19.71;100.00
57990;BME280;58373;51.824;5.564;2023-08-12T09:16:09;101374.31;;;19.72;100.00
57990;BME280;58373;51.824;5.564;2023-08-12T09:18:35;101377.97;;;19.62;100.00
57990;BME280;58373;51.824;5.564;2023-08-12T09:21:00;101372.84;;;19.69;100.00
57990;BME280;58373;51.824;5.564;2023-08-12T09:23:26;101378.63;;;19.65;100.00
57990;BME280;58373;51.824;5.564;2023-08-12T09:25:51;101377.25;;;19.77;100.00
57990;BME280;58373;51.824;5.564;2023-08-12T09:28:16;101389.13;;;19.73;100.00
57990;BME280;58373;51.824;5.564;2023-08-12T09:30:41;101383.72;;;19.97;100.00
57990;BME280;58373;51.824;5.564;2023-08-12T09:33:07;101402.56;;;19.86;100.00
57990;BME280;58373;51.824;5.564;2023-08-12T09:37:58;101411.53;;;20.00;100.00
57990;BME280;58373;51.824;5.564;2023-08-12T09:40:24;101411.75;;;19.90;100.00
57990;BME280;58373;51.824;5.564;2023-08-12T09:42:49;101413.63;;;20.04;100.00
57990;BME280;58373;51.824;5.564;2023-08-12T09:45:15;101422.75;;;19.94;100.00
57990;BME280;58373;51.824;5.564;2023-08-12T09:47:41;101415.16;;;19.99;100.00
57990;BME280;58373;51.824;5.564;2023-08-12T09:50:07;101415.28;;;20.05;100.00
57990;BME280;58373;51.824;5.564;2023-08-12T09:52:32;101417.59;;;20.00;100.00
57990;BME280;58373;51.824;5.564;2023-08-12T09:54:57;101419.34;;;19.85;100.00
57990;BME280;58373;51.824;5.564;2023-08-12T09:57:23;101421.31;;;19.83;100.00
57990;BME280;58373;51.824;5.564;2023-08-12T09:59:50;101420.97;;;19.86;100.00
57990;BME280;58373;51.824;5.564;2023-08-12T10:02:18;101432.19;;;19.72;100.00
57990;BME280;58373;51.824;5.564;2023-08-12T10:04:45;101427.56;;;19.82;100.00
57990;BME280;58373;51.824;5.564;2023-08-12T10:07:10;101426.31;;;19.70;100.00
57990;BME280;58373;51.824;5.564;2023-08-12T10:09:35;101429.56;;;19.72;100.00
57990;BME280;58373;51.824;5.564;2023-08-12T10:12:01;101436.81;;;19.70;100.00
57990;BME280;58373;51.824;5.564;2023-08-12T10:14:26;101446.41;;;19.62;100.00
57990;BME280;58373;51.824;5.564;2023-08-12T10:16:52;101436.22;;;19.43;100.00
57990;BME280;58373;51.824;5.564;2023-08-12T10:19:17;101438.69;;;19.36;100.00
57990;BME280;58373;51.824;5.564;2023-08-12T10:21:46;101445.75;;;19.44;100.00
57990;BME280;58373;51.824;5.564;2023-08-12T10:24:12;101433.06;;;19.48;100.00
57990;BME280;58373;51.824;5.564;2023-08-12T10:26:41;101428.94;;;19.53;100.00
57990;BME280;58373;51.824;5.564;2023-08-12T10:29:07;101436.84;;;19.53;100.00
57990;BME280;58373;51.824;5.564;2023-08-12T10:31:32;101432.25;;;19.63;100.00
57990;BME280;58373;51.824;5.564;2023-08-12T10:33:57;101441.41;;;19.76;100.00
57990;BME280;58373;51.824;5.564;2023-08-12T10:36:23;101436.72;;;19.94;100.00
57990;BME280;58373;51.824;5.564;2023-08-12T10:38:48;101439.78;;;20.06;100.00
57990;BME280;58373;51.824;5.564;2023-08-12T10:44:15;101428.78;;;20.33;100.00
57990;BME280;58373;51.824;5.564;2023-08-12T10:46:36;101435.81;;;20.41;100.00
57990;BME280;58373;51.824;5.564;2023-08-12T10:49:09;101441.06;;;20.41;100.00
57990;BME280;58373;51.824;5.564;2023-08-12T11:02:13;101433.56;;;20.84;100.00
57990;BME280;58373;51.824;5.564;2023-08-12T11:04:41;101433.13;;;20.95;98.75
57990;BME280;58373;51.824;5.564;2023-08-12T11:07:17;101426.75;;;21.04;98.96
57990;BME280;58373;51.824;5.564;2023-08-12T11:09:43;101428.25;;;21.21;96.75
57990;BME280;58373;51.824;5.564;2023-08-12T11:12:08;101432.72;;;21.21;95.91
57990;BME280;58373;51.824;5.564;2023-08-12T11:14:46;101434.81;;;21.26;94.70
57990;BME280;58373;51.824;5.564;2023-08-12T11:17:14;101441.53;;;21.13;89.84
57990;BME280;58373;51.824;5.564;2023-08-12T11:19:40;101439.53;;;21.15;91.31
57990;BME280;58373;51.824;5.564;2023-08-12T11:22:05;101441.28;;;21.23;91.33
57990;BME280;58373;51.824;5.564;2023-08-12T11:24:31;101433.78;;;21.35;90.80
57990;BME280;58373;51.824;5.564;2023-08-12T11:26:59;101435.41;;;21.36;89.67
57990;BME280;58373;51.824;5.564;2023-08-12T11:29:24;101447.97;;;21.48;86.86
57990;BME280;58373;51.824;5.564;2023-08-12T11:31:50;101448.63;;;21.51;86.98
57990;BME280;58373;51.824;5.564;2023-08-12T11:34:15;101451.41;;;21.49;87.11
57990;BME280;58373;51.824;5.564;2023-08-12T11:36:41;101441.59;;;21.43;87.13
57990;BME280;58373;51.824;5.564;2023-08-12T11:39:07;101440.22;;;21.47;85.57
57990;BME280;58373;51.824;5.564;2023-08-12T11:41:33;101447.97;;;21.34;85.98
57990;BME280;58373;51.824;5.564;2023-08-12T11:43:58;101440.06;;;21.34;85.27
57990;BME280;58373;51.824;5.564;2023-08-12T11:46:24;101446.31;;;21.33;86.08
57990;BME280;58373;51.824;5.564;2023-08-12T11:48:49;101442.88;;;21.47;82.75
57990;BME280;58373;51.824;5.564;2023-08-12T11:51:15;101437.31;;;21.42;84.08
57990;BME280;58373;51.824;5.564;2023-08-12T11:53:40;101437.59;;;21.47;82.99
57990;BME280;58373;51.824;5.564;2023-08-12T11:56:05;101439.22;;;21.48;82.05
57990;BME280;58373;51.824;5.564;2023-08-12T11:58:37;101430.31;;;21.49;82.04
57990;BME280;58373;51.824;5.564;2023-08-12T12:01:02;101440.41;;;21.60;81.28
57990;BME280;58373;51.824;5.564;2023-08-12T12:03:27;101439.78;;;21.58;81.66
57990;BME280;58373;51.824;5.564;2023-08-12T12:05:55;101442.69;;;21.63;82.63
57990;BME280;58373;51.824;5.564;2023-08-12T12:08:20;101444.69;;;21.76;81.15
57990;BME280;58373;51.824;5.564;2023-08-12T12:10:45;101447.41;;;21.83;82.59
57990;BME280;58373;51.824;5.564;2023-08-12T12:13:10;101449.72;;;22.07;79.76
57990;BME280;58373;51.824;5.564;2023-08-12T12:15:38;101442.28;;;21.96;79.01
57990;BME280;58373;51.824;5.564;2023-08-12T12:18:08;101439.75;;;21.88;79.99
57990;BME280;58373;51.824;5.564;2023-08-12T12:20:34;101445.56;;;21.98;81.14
57990;BME280;58373;51.824;5.564;2023-08-12T12:23:04;101450.69;;;22.14;77.91
57990;BME280;58373;51.824;5.564;2023-08-12T12:25:29;101450.47;;;22.01;79.31
57990;BME280;58373;51.824;5.564;2023-08-12T12:27:56;101453.31;;;22.14;78.77
57990;BME280;58373;51.824;5.564;2023-08-12T12:30:21;101449.94;;;22.20;78.95
57990;BME280;58373;51.824;5.564;2023-08-12T12:32:46;101458.47;;;22.22;79.13
57990;BME280;58373;51.824;5.564;2023-08-12T12:35:12;101464.66;;;22.30;78.84
57990;BME280;58373;51.824;5.564;2023-08-12T12:37:37;101461.00;;;22.31;78.20
57990;BME280;58373;51.824;5.564;2023-08-12T12:40:03;101459.00;;;22.33;77.72
57990;BME280;58373;51.824;5.564;2023-08-12T12:42:29;101458.63;;;22.36;76.87
57990;BME280;58373;51.824;5.564;2023-08-12T12:44:54;101470.47;;;22.40;75.80
57990;BME280;58373;51.824;5.564;2023-08-12T12:47:19;101462.78;;;22.45;75.87
57990;BME280;58373;51.824;5.564;2023-08-12T12:49:44;101465.69;;;22.50;76.12
57990;BME280;58373;51.824;5.564;2023-08-12T12:52:10;101461.28;;;22.57;75.63